X  Sluiten METAR luchtvaart weer gegevens      LPMT Montijo Air Base
Temperatuur
22°C Temperatuur
12°C Dauwpunt
53% Vochtigheid



Wind
10 KM/U
6 MPH
3 M/S
5 KTS



340°
NNW
Huidig weer

Helder Helder
Luchtdruk 1014.92 (hPa) - 29.97 (inHg)
Zicht 6.2 (mijl) - 10 (km)
Vliegveld
Vliegveld code LPMT

Locatie : Montijo Air Base
Afstand: 6 (km)

Metar:
LPMT 182200Z 34005KT CAVOK 22/12 Q1015

Tijd: 2022-08-18 23:00 BST